TFM - Tactical Decision Aid
ID: Runway Winds: CIG/VIS Threshold:

KAVP - Wilkes-Barre/Scranto, PA, US

Updated at: 1730 UTC 26 Oct 2021
Latest TAF at: 1629 UTC 26 Oct 2021

TAF Board

Time1713Z 26/18Z 26/19Z 26/20Z 26/21Z 26/22Z 26/23Z 27/00Z 27/01Z 27/02Z 27/03Z 27/04Z 27/05Z 27/06Z>>
Type OBS PRVL PRVL PRVL PRVL PRVL PRVL PRVL PRVL PRVL PRVL PRVL PRVL PRVL
VIS 2 2 2 2 5 5 5 5 5 5 5 6 6 6
CIG 9 8 8 8 7 7 7 7 7 7 7 15 15 15
Cover OVC OVC OVC OVC OVC OVC OVC OVC OVC OVC OVC OVC OVC OVC
FltCat IFR IFR IFR IFR IFR IFR IFR IFR IFR IFR IFR MVFR MVFR MVFR
WX +RA BR RA BR RA BR RA BR -RA BR -RA BR -RA BR -RA BR -RA BR -RA BR -RA BR -RA BR -RA BR -RA BR
WDir 360 70 70 70 360 360 360 360 360 360 360 360 360 360
WSpd 6 9 9 9 10 10 10 10 10 10 10 11 11 11
WGst -- 16 16 16 18 18 18 18 18 18 18 -- -- --

TDA Impact Legend

  None Marginal Slight Moderate High
Visibility (sm) >5 3≤X≤5 2≤X<3 0.5≤X<2 <0.5
Ceiling (100 ft) >30 10≤X≤30 10≤X<10 3≤X<10 <3
Wind Speed (kt) <15 15≤X<25 25≤X<30 ≥30
Wind Gust (kt) <15 15≤X<25 25≤X<35 ≥35
Weather No Wx Reported VCTS -TS,-FZRA TS,FZRA +TS,+FZRA
TAF
KAVP 261629Z 2616/2712 07005KT 3SM -RA BR OVC015
  TEMPO 2616/2618 2SM RA BR OVC008
  FM261800 07009G16KT 2SM RA BR OVC008
  FM262100 36010G18KT 5SM -RA BR OVC007
  FM270400 36011KT 6SM -RA BR OVC015
  FM271000 35010G16KT 5SM BR OVC009


METAR
KAVP 261713Z 36006KT 2SM +RA BR FEW005 BKN009 OVC022 14/13 A2939 RMK AO2 P0007 T01390128
KAVP 261701Z 33007KT 2SM RA BR FEW006 BKN015 OVC022 14/13 A2939 RMK AO2 P0003 T01390128
KAVP 261654Z 31006KT 2SM RA BR FEW006 BKN013 OVC021 14/13 A2940 RMK AO2 SLP950 P0020 T01390133
KAVP 261648Z 30004KT 2SM RA BR SCT006 OVC011 14/13 A2940 RMK AO2 P0019
KAVP 261614Z 29003KT 1 3/4SM RA BR FEW003 OVC008 14/13 A2943 RMK AO2 P0005 T01390128
KAVP 261559Z 00000KT 2 1/2SM RA BR BKN008 BKN016 OVC025 13/13 A2944 RMK AO2 P0001 T01330128
KAVP 261554Z 21003KT 3SM RA BR SCT008 BKN016 OVC023 13/13 A2945 RMK AO2 SLP967 P0014 T01330128
KAVP 261522Z 21003KT 2 1/2SM RA BR FEW009 OVC016 13/13 A2945 RMK AO2 P0007 T01330128
KAVP 261454Z 00000KT 2 1/2SM RA BR BKN010 OVC014 13/12 A2947 RMK AO2 SLP975 P0012 60018 T01330122 58008
KAVP 261451Z 00000KT 2SM RA BR SCT010 OVC014 13/12 A2947 RMK AO2 P0012
KAVP 261419Z 00000KT 2 1/2SM RA BR OVC015 13/12 A2949 RMK AO2 P0005 T01330122

Radar Display
Forecast Discussion